createdAt,value
2024-05-09T00:03:37.337Z,11.70
2024-05-09T00:07:39.311Z,11.70
2024-05-09T00:11:41.404Z,11.60
2024-05-09T00:15:43.620Z,11.60
2024-05-09T00:19:46.955Z,11.60
2024-05-09T00:23:49.249Z,11.60
2024-05-09T00:27:51.429Z,11.40
2024-05-09T00:31:53.543Z,11.50
2024-05-09T00:35:55.610Z,11.50
2024-05-09T00:39:57.743Z,11.60
2024-05-09T00:44:00.304Z,11.60
2024-05-09T00:48:06.658Z,11.50
2024-05-09T00:52:10.463Z,11.20
2024-05-09T00:56:13.106Z,11.20
2024-05-09T01:00:25.954Z,11.10
2024-05-09T01:04:32.875Z,11.10
2024-05-09T01:08:35.119Z,11.20
2024-05-09T01:12:37.237Z,11.10
2024-05-09T01:16:40.035Z,11.20
2024-05-09T01:20:44.649Z,11.20
2024-05-09T01:24:47.507Z,11.10
2024-05-09T01:28:49.510Z,11.00
2024-05-09T01:32:51.662Z,11.10
2024-05-09T01:36:53.806Z,11.40
2024-05-09T01:40:56.122Z,11.10
2024-05-09T01:44:58.380Z,11.10
2024-05-09T01:49:00.840Z,10.90
2024-05-09T01:53:03.039Z,10.60
2024-05-09T01:57:05.559Z,10.90
2024-05-09T02:01:07.803Z,10.90
2024-05-09T02:05:10.056Z,10.90
2024-05-09T02:09:12.195Z,11.20
2024-05-09T02:13:14.668Z,11.30
2024-05-09T02:17:16.793Z,11.30
2024-05-09T02:21:18.953Z,11.30
2024-05-09T02:25:23.300Z,10.90
2024-05-09T02:29:25.446Z,11.10
2024-05-09T02:33:27.888Z,11.20
2024-05-09T02:37:30.095Z,11.30
2024-05-09T02:41:32.188Z,11.30
2024-05-09T02:45:34.351Z,11.10
2024-05-09T02:49:36.671Z,11.10
2024-05-09T02:53:38.694Z,11.00
2024-05-09T02:57:40.760Z,10.90
2024-05-09T03:01:42.940Z,11.00
2024-05-09T03:05:45.474Z,11.00
2024-05-09T03:09:47.693Z,10.80
2024-05-09T03:13:53.118Z,10.70
2024-05-09T03:17:55.279Z,10.90
2024-05-09T03:21:58.874Z,11.10
2024-05-09T03:26:01.076Z,11.20
2024-05-09T03:30:05.511Z,11.30
2024-05-09T03:34:11.223Z,11.20
2024-05-09T03:38:13.586Z,11.20
2024-05-09T03:42:15.850Z,11.20
2024-05-09T03:46:17.835Z,11.20
2024-05-09T03:50:29.575Z,11.10
2024-05-09T03:54:36.068Z,11.20
2024-05-09T03:58:38.177Z,11.20
2024-05-09T04:02:43.406Z,11.40
2024-05-09T04:06:45.546Z,11.50
2024-05-09T04:10:49.065Z,11.40
2024-05-09T04:14:51.033Z,11.20
2024-05-09T04:18:53.614Z,11.20
2024-05-09T04:22:55.884Z,11.00
2024-05-09T04:26:57.873Z,11.10
2024-05-09T04:31:00.031Z,11.00
2024-05-09T04:35:02.325Z,11.10
2024-05-09T04:39:04.670Z,11.00
2024-05-09T04:43:13.634Z,10.60
2024-05-09T04:47:15.869Z,10.60
2024-05-09T04:51:18.191Z,10.80
2024-05-09T04:55:20.256Z,10.20
2024-05-09T04:59:22.352Z,10.50
2024-05-09T05:03:24.833Z,10.50
2024-05-09T05:07:27.029Z,10.70
2024-05-09T05:11:29.174Z,10.70
2024-05-09T05:15:31.135Z,11.20
2024-05-09T05:19:33.292Z,11.00
2024-05-09T05:23:35.495Z,11.10
2024-05-09T05:27:38.423Z,11.20
2024-05-09T05:31:40.610Z,11.10
2024-05-09T05:35:42.865Z,11.00
2024-05-09T05:39:45.069Z,11.10
2024-05-09T05:43:49.204Z,11.30
2024-05-09T05:47:52.098Z,11.40
2024-05-09T05:51:54.250Z,11.40
2024-05-09T05:55:56.299Z,11.60
2024-05-09T05:59:58.346Z,10.90
2024-05-09T06:04:00.633Z,11.20
2024-05-09T06:08:03.684Z,10.90
2024-05-09T06:12:06.207Z,11.40
2024-05-09T06:16:08.312Z,11.40
2024-05-09T06:20:20.133Z,11.70
2024-05-09T06:24:26.519Z,11.70
2024-05-09T06:28:29.717Z,12.10
2024-05-09T06:32:31.892Z,11.90
2024-05-09T06:36:34.028Z,12.10
2024-05-09T06:40:38.898Z,11.70
2024-05-09T06:44:42.434Z,12.00
2024-05-09T06:48:44.834Z,11.80
2024-05-09T06:52:47.687Z,11.60
2024-05-09T06:56:49.978Z,11.90
2024-05-09T07:00:52.432Z,11.90
2024-05-09T07:04:54.771Z,12.10
2024-05-09T07:08:56.776Z,12.30
2024-05-09T07:12:59.066Z,12.10
2024-05-09T07:17:07.486Z,12.30
2024-05-09T07:21:09.757Z,12.60
2024-05-09T07:25:11.896Z,12.70
2024-05-09T07:29:13.821Z,12.60
2024-05-09T07:33:22.519Z,12.80
2024-05-09T07:37:26.098Z,12.50
2024-05-09T07:41:28.214Z,12.50
2024-05-09T07:45:47.724Z,12.90
2024-05-09T07:51:32.811Z,13.00
2024-05-09T07:54:15.479Z,13.10
2024-05-09T07:58:17.602Z,12.90
2024-05-09T08:02:20.958Z,13.00
2024-05-09T08:06:23.992Z,13.10
2024-05-09T08:10:29.089Z,13.10
2024-05-09T08:14:32.740Z,13.20
2024-05-09T08:18:35.388Z,13.40
2024-05-09T08:22:37.685Z,13.70
2024-05-09T08:26:39.844Z,13.70
2024-05-09T08:30:42.933Z,13.50
2024-05-09T08:34:45.172Z,13.60
2024-05-09T08:38:47.348Z,13.40
2024-05-09T08:42:50.870Z,13.90
2024-05-09T08:46:53.598Z,13.80
2024-05-09T08:50:59.365Z,14.00
2024-05-09T08:55:02.094Z,14.20
2024-05-09T08:59:07.085Z,14.00
2024-05-09T09:03:11.632Z,13.90
2024-05-09T09:07:14.988Z,14.30
2024-05-09T09:11:17.139Z,14.20
2024-05-09T09:15:19.195Z,14.30
2024-05-09T09:19:23.629Z,14.50
2024-05-09T09:23:30.234Z,14.10
2024-05-09T09:27:33.947Z,14.50
2024-05-09T09:31:37.356Z,15.00
2024-05-09T09:35:40.768Z,14.50
2024-05-09T09:39:48.963Z,13.90
2024-05-09T09:43:53.670Z,13.90
2024-05-09T09:47:59.638Z,14.00
2024-05-09T09:52:02.867Z,14.40
2024-05-09T09:56:07.688Z,14.40
2024-05-09T10:00:11.982Z,14.80
2024-05-09T10:04:19.842Z,14.60
2024-05-09T10:08:23.860Z,15.10
2024-05-09T10:12:26.301Z,15.50
2024-05-09T10:16:32.054Z,15.20
2024-05-09T10:20:41.749Z,15.30
2024-05-09T10:24:54.266Z,15.00
2024-05-09T10:28:58.710Z,15.30
2024-05-09T10:33:00.999Z,15.20
2024-05-09T10:37:04.938Z,14.60
2024-05-09T10:41:08.732Z,14.60
2024-05-09T10:45:10.813Z,14.80
2024-05-09T10:49:14.880Z,14.70
2024-05-09T10:53:19.200Z,14.70
2024-05-09T10:57:22.025Z,14.50
2024-05-09T11:01:25.136Z,14.50
2024-05-09T11:05:27.712Z,14.70
2024-05-09T11:09:31.481Z,14.90
2024-05-09T11:13:36.174Z,15.50
2024-05-09T11:17:38.569Z,15.50
2024-05-09T11:21:40.772Z,15.60
2024-05-09T11:25:58.344Z,15.40
2024-05-09T11:30:01.741Z,14.90
2024-05-09T11:34:05.473Z,15.10
2024-05-09T11:38:07.680Z,15.60
2024-05-09T11:42:09.885Z,15.70
2024-05-09T11:46:12.271Z,15.10
2024-05-09T11:50:22.523Z,15.30
2024-05-09T11:54:29.814Z,15.90
2024-05-09T11:58:36.941Z,15.60
2024-05-09T12:02:39.145Z,15.70
2024-05-09T12:06:41.410Z,15.90
2024-05-09T12:10:43.675Z,16.20
2024-05-09T12:14:45.834Z,16.00
2024-05-09T12:18:48.220Z,16.30
2024-05-09T12:22:50.499Z,14.60
2024-05-09T12:26:52.725Z,15.10
2024-05-09T12:30:54.844Z,15.60
2024-05-09T12:34:57.010Z,16.20
2024-05-09T12:38:59.165Z,16.50
2024-05-09T12:43:01.398Z,16.50
2024-05-09T12:47:03.520Z,16.30
2024-05-09T12:51:06.085Z,15.80
2024-05-09T12:55:10.034Z,15.80
2024-05-09T12:59:12.372Z,15.90
2024-05-09T13:03:14.797Z,15.80
2024-05-09T13:07:17.200Z,16.60
2024-05-09T13:11:19.614Z,16.20
2024-05-09T13:15:21.771Z,16.70
2024-05-09T13:19:24.095Z,16.50
2024-05-09T13:23:26.450Z,16.80
2024-05-09T13:27:28.501Z,17.10
2024-05-09T13:31:30.825Z,16.40
2024-05-09T13:35:34.391Z,16.70
2024-05-09T13:39:36.758Z,16.80
2024-05-09T13:43:38.938Z,17.10
2024-05-09T13:47:41.357Z,16.80
2024-05-09T13:51:43.678Z,16.30
2024-05-09T13:55:46.142Z,16.70
2024-05-09T13:59:48.316Z,16.80
2024-05-09T14:03:50.511Z,16.90
2024-05-09T14:07:52.589Z,16.50
2024-05-09T14:11:54.623Z,16.70
2024-05-09T14:15:56.969Z,17.10
2024-05-09T14:19:59.314Z,16.70
2024-05-09T14:24:01.299Z,16.80
2024-05-09T14:28:04.029Z,16.50
2024-05-09T14:32:06.547Z,17.00
2024-05-09T14:36:08.722Z,17.00
2024-05-09T14:40:25.960Z,16.70
2024-05-09T14:44:33.283Z,15.70
2024-05-09T14:48:35.634Z,15.90
2024-05-09T14:52:37.737Z,16.50
2024-05-09T14:56:40.183Z,16.80
2024-05-09T15:00:46.714Z,16.90
2024-05-09T15:04:52.365Z,16.70
2024-05-09T15:08:58.952Z,17.00
2024-05-09T15:13:01.116Z,16.30
2024-05-09T15:17:03.506Z,16.00
2024-05-09T15:21:05.933Z,16.70
2024-05-09T15:25:08.042Z,16.70
2024-05-09T15:29:10.725Z,16.90
2024-05-09T15:33:12.911Z,16.90
2024-05-09T15:37:15.467Z,16.90
2024-05-09T15:41:17.480Z,17.00
2024-05-09T15:45:19.700Z,17.30
2024-05-09T15:49:21.828Z,17.10
2024-05-09T15:53:24.117Z,17.30
2024-05-09T15:57:26.260Z,17.40
2024-05-09T16:01:28.806Z,16.80
2024-05-09T16:05:31.129Z,17.10
2024-05-09T16:09:33.308Z,17.00
2024-05-09T16:13:35.335Z,16.80
2024-05-09T16:17:37.612Z,17.10
2024-05-09T16:21:39.793Z,17.10
2024-05-09T16:25:47.719Z,16.50
2024-05-09T16:29:50.072Z,16.70
2024-05-09T16:33:52.335Z,17.20
2024-05-09T16:37:54.553Z,17.10
2024-05-09T16:41:56.556Z,17.50
2024-05-09T16:45:58.730Z,16.90
2024-05-09T16:50:00.755Z,17.20
2024-05-09T16:54:02.937Z,17.30
2024-05-09T16:58:08.043Z,17.30
2024-05-09T17:02:10.461Z,17.30
2024-05-09T17:06:12.987Z,16.90
2024-05-09T17:10:22.112Z,16.10
2024-05-09T17:14:29.025Z,16.60
2024-05-09T17:18:31.855Z,16.70
2024-05-09T17:22:35.202Z,17.00
2024-05-09T17:26:37.423Z,17.20
2024-05-09T17:30:41.617Z,17.20
2024-05-09T17:34:45.071Z,17.00
2024-05-09T17:38:47.292Z,17.10
2024-05-09T17:42:49.497Z,17.10
2024-05-09T17:46:51.617Z,16.80
2024-05-09T17:50:53.615Z,16.00
2024-05-09T17:54:55.840Z,16.40
2024-05-09T17:58:57.951Z,16.70
2024-05-09T18:03:00.132Z,16.70
2024-05-09T18:07:02.104Z,16.60
2024-05-09T18:11:04.416Z,16.70
2024-05-09T18:15:06.702Z,16.70
2024-05-09T18:19:09.685Z,16.60
2024-05-09T18:23:17.273Z,16.50
2024-05-09T18:27:20.457Z,16.40
2024-05-09T18:31:22.669Z,16.30
2024-05-09T18:35:24.736Z,16.20
2024-05-09T18:39:26.905Z,16.10
2024-05-09T18:43:38.009Z,15.90
2024-05-09T18:47:44.591Z,15.70
2024-05-09T18:51:46.731Z,15.40
2024-05-09T18:55:48.918Z,15.20
2024-05-09T18:59:51.180Z,15.20
2024-05-09T19:03:53.585Z,15.00
2024-05-09T19:07:55.909Z,14.80
2024-05-09T19:12:00.590Z,14.50
2024-05-09T19:16:03.388Z,14.40
2024-05-09T19:20:06.277Z,14.30
2024-05-09T19:24:09.874Z,14.20
2024-05-09T19:28:12.208Z,13.80
2024-05-09T19:32:14.359Z,13.90
2024-05-09T19:36:19.577Z,14.00
2024-05-09T19:40:28.967Z,14.00
2024-05-09T19:44:35.489Z,13.90
2024-05-09T19:48:37.787Z,13.50
2024-05-09T19:52:40.205Z,13.40
2024-05-09T19:56:45.216Z,12.90
2024-05-09T20:00:47.864Z,12.80
2024-05-09T20:04:51.371Z,12.90
2024-05-09T20:08:57.157Z,13.00
2024-05-09T20:12:59.155Z,12.90
2024-05-09T20:17:01.465Z,12.90
2024-05-09T20:21:04.091Z,12.80
2024-05-09T20:25:06.696Z,12.90
2024-05-09T20:29:08.874Z,12.80
2024-05-09T20:33:12.415Z,12.60
2024-05-09T20:37:14.924Z,12.50
2024-05-09T20:41:17.140Z,12.10
2024-05-09T20:45:19.255Z,11.70
2024-05-09T20:49:22.234Z,11.80
2024-05-09T20:53:24.489Z,12.10
2024-05-09T20:57:26.707Z,12.20
2024-05-09T21:01:28.809Z,12.00
2024-05-09T21:05:31.113Z,11.90
2024-05-09T21:09:33.209Z,11.70
2024-05-09T21:13:35.730Z,11.80
2024-05-09T21:17:37.946Z,11.30
2024-05-09T21:21:41.013Z,11.20
2024-05-09T21:25:43.002Z,10.90
2024-05-09T21:29:45.353Z,11.10
2024-05-09T21:33:47.793Z,11.30
2024-05-09T21:37:50.007Z,11.40
2024-05-09T21:41:52.189Z,11.50
2024-05-09T21:45:54.178Z,11.50
2024-05-09T21:49:56.562Z,11.40
2024-05-09T21:53:58.994Z,11.40
2024-05-09T21:58:01.192Z,11.40
2024-05-09T22:02:03.691Z,11.30
2024-05-09T22:06:06.009Z,11.30
2024-05-09T22:10:15.970Z,11.20
2024-05-09T22:14:25.406Z,11.20
2024-05-09T22:18:27.495Z,11.10
2024-05-09T22:22:29.524Z,11.10
2024-05-09T22:26:31.446Z,11.00
2024-05-09T22:30:37.586Z,11.00
2024-05-09T22:34:41.776Z,10.90
2024-05-09T22:38:43.792Z,10.90
2024-05-09T22:42:45.885Z,10.90
2024-05-09T22:46:48.023Z,10.80
2024-05-09T22:50:50.200Z,10.80
2024-05-09T22:54:52.390Z,10.70
2024-05-09T22:58:55.230Z,10.60
2024-05-09T23:02:57.298Z,10.60
2024-05-09T23:06:59.488Z,10.50
2024-05-09T23:11:01.545Z,10.50
2024-05-09T23:15:03.706Z,10.50
2024-05-09T23:19:05.913Z,10.50
2024-05-09T23:23:09.769Z,10.30
2024-05-09T23:27:12.845Z,10.40
2024-05-09T23:31:15.522Z,10.40
2024-05-09T23:35:17.586Z,10.10
2024-05-09T23:39:19.680Z,10.00
2024-05-09T23:43:21.803Z,10.30
2024-05-09T23:47:24.150Z,9.50
2024-05-09T23:51:26.184Z,9.60
2024-05-09T23:55:28.655Z,9.60
2024-05-09T23:59:30.843Z,9.50
